Time;durP1;ratioP1;P1;durP2;ratioP2;P2;SDS_P1;SDS_P2;PMS_P1;PMS_P2;Temp;Humidity;BMP_temperature;BMP_pressure;BME280_temperature;BME280_humidity;BME280_pressure;Samples;Min_cycle;Max_cycle;Signal;HPM_P1;HPM_P2
2023/08/11 00:01:53;;;;;;;4.57;2.92;;;;;;;14.87;100.00;96382.44;5030920;28;24463;-72
2023/08/11 00:04:19;;;;;;;4.63;2.90;;;;;;;14.83;100.00;96383.59;5030665;28;24459;-72
2023/08/11 00:06:46;;;;;;;5.10;3.00;;;;;;;14.92;100.00;96382.09;5033032;28;24443;-72
2023/08/11 00:09:13;;;;;;;4.60;2.85;;;;;;;14.97;100.00;96385.19;5032953;28;25050;-72
2023/08/11 00:11:41;;;;;;;4.50;2.90;;;;;;;14.86;100.00;96388.56;5032876;28;24455;-72
2023/08/11 00:14:07;;;;;;;3.80;2.97;;;;;;;14.81;100.00;96389.84;4997858;28;24435;-72
2023/08/11 00:16:35;;;;;;;5.53;2.95;;;;;;;14.81;100.00;96384.63;5013811;28;24440;-72
2023/08/11 00:19:01;;;;;;;4.40;3.10;;;;;;;14.80;100.00;96382.97;5013563;28;24460;-72
2023/08/11 00:21:28;;;;;;;5.57;3.25;;;;;;;14.83;100.00;96387.94;5027706;28;24432;-72
2023/08/11 00:23:54;;;;;;;5.78;3.17;;;;;;;14.89;100.00;96387.53;5031281;28;24436;-72
2023/08/11 00:26:21;;;;;;;4.22;3.10;;;;;;;14.85;100.00;96386.06;5013296;28;24475;-72
2023/08/11 00:28:48;;;;;;;4.32;2.80;;;;;;;14.82;100.00;96386.28;5013191;28;25052;-72
2023/08/11 00:31:14;;;;;;;6.20;3.35;;;;;;;14.83;100.00;96396.63;5013504;28;24444;-72
2023/08/11 00:33:46;;;;;;;3.03;2.78;;;;;;;14.85;100.00;96389.50;5028559;28;24808;-72
2023/08/11 00:36:13;;;;;;;4.13;2.75;;;;;;;14.94;100.00;96383.66;5032657;28;24435;-72
2023/08/11 00:38:40;;;;;;;5.20;2.77;;;;;;;14.87;100.00;96392.84;5025435;28;24490;-72
2023/08/11 00:41:07;;;;;;;3.83;3.25;;;;;;;14.77;100.00;96394.44;5019908;28;24451;-72
2023/08/11 00:43:33;;;;;;;6.18;3.05;;;;;;;14.76;100.00;96398.81;5032577;28;24482;-72
2023/08/11 00:46:07;;;;;;;3.75;2.70;;;;;;;14.67;100.00;96390.78;5015394;28;24456;-72
2023/08/11 00:48:33;;;;;;;4.13;2.60;;;;;;;14.57;100.00;96390.56;5012962;28;25018;-72
2023/08/11 00:51:05;;;;;;;3.80;2.67;;;;;;;14.54;100.00;96392.59;5013228;28;24444;-72
2023/08/11 00:53:31;;;;;;;6.13;3.13;;;;;;;14.40;100.00;96396.94;5026555;28;24451;-72
2023/08/11 00:55:58;;;;;;;4.15;2.97;;;;;;;14.32;100.00;96401.84;5031902;28;24824;-72
2023/08/11 00:58:24;;;;;;;3.47;2.70;;;;;;;14.26;100.00;96394.41;5027802;28;24847;-72
2023/08/11 01:00:52;;;;;;;5.00;3.00;;;;;;;14.38;100.00;96392.75;5012640;28;24796;-72
2023/08/11 01:03:19;;;;;;;3.97;2.88;;;;;;;14.28;100.00;96396.00;5012509;28;24448;-72
2023/08/11 01:05:54;;;;;;;4.20;2.85;;;;;;;14.06;100.00;96400.97;5022539;28;24447;-72
2023/08/11 01:08:30;;;;;;;3.78;2.92;;;;;;;14.04;100.00;96400.22;5013424;28;24444;-72
2023/08/11 01:11:07;;;;;;;5.40;3.10;;;;;;;14.15;100.00;96395.13;5012755;28;24439;-72
2023/08/11 01:13:39;;;;;;;4.30;2.95;;;;;;;14.20;100.00;96394.81;5024814;28;24440;-72
2023/08/11 01:16:08;;;;;;;4.15;2.80;;;;;;;14.23;100.00;96397.22;5015128;28;24443;-72
2023/08/11 01:18:35;;;;;;;5.03;3.08;;;;;;;14.11;100.00;96395.44;5012277;28;24447;-72
2023/08/11 01:21:08;;;;;;;3.92;3.10;;;;;;;14.02;100.00;96396.91;5020543;28;24436;-72
2023/08/11 01:23:36;;;;;;;4.63;3.20;;;;;;;14.03;100.00;96395.97;5031564;28;25014;-72
2023/08/11 01:26:03;;;;;;;4.35;3.10;;;;;;;14.06;100.00;96392.34;5030871;28;24463;-72
2023/08/11 01:28:29;;;;;;;3.87;3.20;;;;;;;14.13;100.00;96397.03;5031072;28;24487;-72
2023/08/11 01:30:56;;;;;;;3.63;3.05;;;;;;;14.16;100.00;96394.19;5031319;28;24447;-72
2023/08/11 01:33:21;;;;;;;5.00;3.13;;;;;;;14.16;100.00;96390.75;5020542;28;24444;-72
2023/08/11 01:35:48;;;;;;;4.55;2.95;;;;;;;14.05;100.00;96388.88;5018738;28;24432;-72
2023/08/11 01:38:14;;;;;;;4.03;3.10;;;;;;;13.79;100.00;96385.38;5028800;28;24444;-72
2023/08/11 01:40:42;;;;;;;4.68;3.10;;;;;;;13.67;100.00;96384.44;5031374;28;24436;-72
2023/08/11 01:43:11;;;;;;;6.80;3.30;;;;;;;13.66;100.00;96390.56;5029872;28;24440;-72
2023/08/11 01:45:38;;;;;;;4.68;3.30;;;;;;;13.72;100.00;96394.53;5019036;28;24453;-72
2023/08/11 01:48:06;;;;;;;5.15;3.15;;;;;;;13.77;100.00;96395.09;5012154;28;24461;-72
2023/08/11 01:50:34;;;;;;;3.92;3.40;;;;;;;13.83;100.00;96394.69;5011941;28;24442;-72
2023/08/11 01:53:00;;;;;;;3.17;2.72;;;;;;;13.92;100.00;96393.25;5011785;28;24428;-72
2023/08/11 01:55:28;;;;;;;7.07;3.50;;;;;;;14.02;100.00;96389.94;5011642;28;24433;-72
2023/08/11 01:57:56;;;;;;;2.90;2.45;;;;;;;14.04;100.00;96388.03;5011698;28;24679;-72
2023/08/11 02:00:23;;;;;;;4.70;3.03;;;;;;;14.06;100.00;96384.53;5011606;28;24436;-72
2023/08/11 02:02:50;;;;;;;3.95;3.22;;;;;;;14.09;100.00;96387.75;5011713;28;24494;-72
2023/08/11 02:05:16;;;;;;;4.40;2.67;;;;;;;14.07;100.00;96392.22;5011371;28;24459;-72
2023/08/11 02:07:44;;;;;;;3.83;2.70;;;;;;;13.96;100.00;96395.53;5011652;28;24439;-72
2023/08/11 02:10:11;;;;;;;3.08;2.78;;;;;;;13.95;100.00;96391.28;5011135;28;24444;-72
2023/08/11 02:12:39;;;;;;;3.78;3.08;;;;;;;14.03;100.00;96390.75;5014357;28;25010;-72
2023/08/11 02:15:08;;;;;;;4.40;3.00;;;;;;;14.02;100.00;96389.09;5030774;28;24464;-71
2023/08/11 02:17:35;;;;;;;4.67;2.87;;;;;;;13.94;100.00;96388.75;5019959;28;24437;-72
2023/08/11 02:20:12;;;;;;;4.18;2.50;;;;;;;13.82;100.00;96393.00;5025713;28;24442;-72
2023/08/11 02:22:39;;;;;;;4.43;2.83;;;;;;;13.55;100.00;96393.03;5030372;28;24539;-72
2023/08/11 02:25:06;;;;;;;2.92;2.22;;;;;;;13.50;100.00;96382.09;5029577;28;24439;-72
2023/08/11 02:27:32;;;;;;;4.20;2.60;;;;;;;13.49;100.00;96393.44;5030633;28;24834;-72
2023/08/11 02:29:59;;;;;;;5.10;3.03;;;;;;;13.56;100.00;96387.72;5016600;28;24804;-72
2023/08/11 02:32:27;;;;;;;5.35;2.90;;;;;;;13.48;100.00;96384.78;5019821;28;24438;-72
2023/08/11 02:34:53;;;;;;;3.88;2.78;;;;;;;13.37;100.00;96392.44;5030264;28;24443;-72
2023/08/11 02:37:19;;;;;;;6.97;2.72;;;;;;;13.39;100.00;96388.00;5030454;28;24435;-72
2023/08/11 02:39:46;;;;;;;4.40;2.80;;;;;;;13.40;100.00;96384.44;5030163;28;24435;-72
2023/08/11 02:42:13;;;;;;;3.25;2.85;;;;;;;13.48;100.00;96384.78;5028562;28;24478;-72
2023/08/11 02:44:40;;;;;;;3.33;2.70;;;;;;;13.40;100.00;96388.81;5010554;28;25927;-72
2023/08/11 02:47:07;;;;;;;4.25;3.00;;;;;;;13.34;100.00;96387.44;5010780;28;24966;-72
2023/08/11 02:49:35;;;;;;;4.65;3.30;;;;;;;13.35;100.00;96383.06;5010781;28;24448;-72
2023/08/11 02:52:02;;;;;;;6.60;3.25;;;;;;;13.38;100.00;96390.69;5024359;28;24436;-72
2023/08/11 02:54:29;;;;;;;4.50;3.10;;;;;;;13.44;100.00;96385.91;5029785;28;24419;-72
2023/08/11 02:56:55;;;;;;;5.35;3.10;;;;;;;13.39;100.00;96387.16;5014771;28;24987;-72
2023/08/11 02:59:22;;;;;;;3.55;2.83;;;;;;;13.39;100.00;96382.78;5030126;28;24819;-72
2023/08/11 03:01:48;;;;;;;5.38;2.70;;;;;;;13.27;100.00;96388.75;5018991;28;24433;-72
2023/08/11 03:04:16;;;;;;;7.18;3.10;;;;;;;13.24;100.00;96389.81;5010559;28;25030;-72
2023/08/11 03:06:45;;;;;;;3.67;2.70;;;;;;;13.19;100.00;96389.22;5010559;28;24459;-72
2023/08/11 03:09:12;;;;;;;6.28;3.08;;;;;;;13.17;100.00;96387.66;5010585;28;24499;-72
2023/08/11 03:11:38;;;;;;;4.25;3.22;;;;;;;13.37;100.00;96381.22;5010827;28;24440;-72
2023/08/11 03:14:05;;;;;;;3.38;2.75;;;;;;;13.29;100.00;96379.09;5023458;28;24439;-72
2023/08/11 03:16:32;;;;;;;4.68;2.97;;;;;;;13.08;100.00;96381.25;5013486;28;24984;-72
2023/08/11 03:18:59;;;;;;;3.03;2.55;;;;;;;12.96;100.00;96372.47;5031917;28;24475;-72
2023/08/11 03:21:25;;;;;;;6.80;2.95;;;;;;;12.95;100.00;96375.19;5032464;28;24486;-72
2023/08/11 03:23:53;;;;;;;4.88;3.17;;;;;;;12.97;100.00;96371.53;5032384;28;24444;-72
2023/08/11 03:26:20;;;;;;;3.88;3.10;;;;;;;12.94;100.00;96370.88;5031517;28;24459;-72
2023/08/11 03:28:46;;;;;;;3.37;2.80;;;;;;;12.91;100.00;96373.69;5013985;28;24464;-71
2023/08/11 03:31:12;;;;;;;5.03;3.05;;;;;;;12.91;100.00;96371.09;5012568;28;24432;-71
2023/08/11 03:33:39;;;;;;;4.07;2.95;;;;;;;12.92;100.00;96367.56;5011893;28;24436;-71
2023/08/11 03:36:06;;;;;;;3.75;2.85;;;;;;;12.94;100.00;96373.47;5024396;28;24542;-71
2023/08/11 03:38:32;;;;;;;3.72;2.67;;;;;;;13.04;100.00;96369.38;5001820;28;24499;-71
2023/08/11 03:41:00;;;;;;;8.43;2.72;;;;;;;13.03;100.00;96372.91;4995957;28;24443;-71
2023/08/11 03:43:26;;;;;;;4.78;3.00;;;;;;;13.03;100.00;96368.56;5011898;28;24439;-71
2023/08/11 03:45:53;;;;;;;3.75;3.20;;;;;;;13.04;100.00;96371.97;5055888;23;24456;-76
2023/08/11 03:48:19;;;;;;;4.30;3.13;;;;;;;13.05;100.00;96368.44;5029075;28;24540;-76
2023/08/11 03:50:46;;;;;;;5.88;3.35;;;;;;;12.86;100.00;96373.97;5030244;28;24826;-76
2023/08/11 03:53:13;;;;;;;8.32;3.78;;;;;;;12.92;100.00;96368.41;5029908;28;24440;-76
2023/08/11 03:55:39;;;;;;;4.68;3.10;;;;;;;12.96;100.00;96367.25;5030336;28;24451;-76
2023/08/11 03:58:07;;;;;;;4.55;3.80;;;;;;;12.77;100.00;96364.97;5052149;28;24774;-76
2023/08/11 04:00:35;;;;;;;4.80;3.30;;;;;;;12.62;100.00;96378.09;5053437;28;24964;-76
2023/08/11 04:03:01;;;;;;;4.13;3.50;;;;;;;12.63;100.00;96382.34;5053276;28;25075;-76
2023/08/11 04:05:28;;;;;;;5.35;3.20;;;;;;;12.49;100.00;96384.00;5052599;28;24462;-76
2023/08/11 04:07:54;;;;;;;4.15;3.47;;;;;;;12.63;100.00;96387.56;5053706;28;24802;-76
2023/08/11 04:10:21;;;;;;;5.22;3.20;;;;;;;12.71;100.00;96380.13;5053313;28;24982;-76
2023/08/11 04:12:47;;;;;;;10.27;3.37;;;;;;;12.81;100.00;96381.22;5053147;28;24482;-75
2023/08/11 04:15:15;;;;;;;3.17;2.88;;;;;;;12.79;100.00;96368.34;5052804;28;24442;-75
2023/08/11 04:17:42;;;;;;;5.50;3.05;;;;;;;12.68;100.00;96378.56;5053131;28;24446;-75
2023/08/11 04:20:12;;;;;;;3.40;3.00;;;;;;;12.76;100.00;96378.09;5053271;28;24435;-75
2023/08/11 04:22:39;;;;;;;4.20;3.15;;;;;;;12.72;100.00;96382.63;5053379;28;24439;-75
2023/08/11 04:25:06;;;;;;;3.60;3.15;;;;;;;12.72;100.00;96384.38;5053356;28;24439;-75
2023/08/11 04:27:33;;;;;;;3.33;3.03;;;;;;;12.80;100.00;96380.41;5052770;28;24462;-76
2023/08/11 04:29:59;;;;;;;7.05;3.25;;;;;;;12.99;100.00;96374.06;5053077;28;24886;-75
2023/08/11 04:32:27;;;;;;;5.43;2.80;;;;;;;12.98;100.00;96380.19;5053196;28;24801;-75
2023/08/11 04:34:54;;;;;;;7.70;2.95;;;;;;;12.82;100.00;96391.50;5052076;28;24438;-74
2023/08/11 04:37:20;;;;;;;3.37;3.03;;;;;;;12.63;100.00;96392.75;5052855;28;24522;-75
2023/08/11 04:39:46;;;;;;;5.80;2.78;;;;;;;12.61;100.00;96387.66;5052307;28;24434;-74
2023/08/11 04:42:13;;;;;;;4.30;3.08;;;;;;;12.62;100.00;96389.31;5050630;28;24427;-75
2023/08/11 04:44:40;;;;;;;4.10;2.95;;;;;;;12.75;100.00;96384.19;5051291;28;24478;-75
2023/08/11 04:47:06;;;;;;;3.92;2.97;;;;;;;12.83;100.00;96384.56;5051594;28;25129;-75
2023/08/11 04:49:34;;;;;;;4.50;3.20;;;;;;;12.94;100.00;96383.88;5052408;28;24430;-75
2023/08/11 04:52:00;;;;;;;7.07;3.20;;;;;;;13.06;100.00;96394.38;5050491;28;25100;-75
2023/08/11 04:54:28;;;;;;;6.83;3.07;;;;;;;13.20;100.00;96392.66;5048388;28;24481;-75
2023/08/11 04:56:54;;;;;;;4.15;3.10;;;;;;;13.35;100.00;96385.66;5051529;28;24444;-75
2023/08/11 04:59:21;;;;;;;4.35;2.80;;;;;;;13.43;100.00;96391.25;5051719;28;24447;-75
2023/08/11 05:01:48;;;;;;;3.42;2.90;;;;;;;13.51;100.00;96395.00;5051870;28;24439;-75
2023/08/11 05:04:15;;;;;;;3.50;2.95;;;;;;;13.59;100.00;96391.91;5051933;28;24493;-75
2023/08/11 05:06:43;;;;;;;3.83;3.30;;;;;;;13.65;100.00;96398.50;5051375;28;24458;-75
2023/08/11 05:09:09;;;;;;;6.38;3.35;;;;;;;13.71;100.00;96390.28;5050636;28;24439;-75
2023/08/11 05:11:37;;;;;;;7.57;3.57;;;;;;;13.73;100.00;96388.41;5051625;28;24466;-75
2023/08/11 05:14:04;;;;;;;5.00;3.13;;;;;;;13.77;100.00;96395.09;5051537;28;24443;-76
2023/08/11 05:16:31;;;;;;;4.88;3.20;;;;;;;13.73;100.00;96391.00;5051795;28;24859;-76
2023/08/11 05:18:57;;;;;;;5.35;3.30;;;;;;;13.77;100.00;96385.50;5050327;28;24439;-75
2023/08/11 05:21:24;;;;;;;5.85;3.13;;;;;;;13.81;100.00;96393.94;5050687;28;24442;-76
2023/08/11 05:23:52;;;;;;;6.10;3.42;;;;;;;13.80;100.00;96397.50;5051407;28;24441;-76
2023/08/11 05:26:19;;;;;;;3.63;3.15;;;;;;;13.86;100.00;96397.06;5050957;28;24459;-76
2023/08/11 05:28:45;;;;;;;6.38;3.50;;;;;;;13.91;100.00;96402.00;5051263;28;24431;-76
2023/08/11 05:31:12;;;;;;;4.10;3.08;;;;;;;13.88;100.00;96397.81;5051377;28;24493;-76
2023/08/11 05:33:38;;;;;;;5.03;3.10;;;;;;;13.98;100.00;96398.06;5051259;28;24436;-76
2023/08/11 05:36:05;;;;;;;5.32;3.45;;;;;;;14.02;100.00;96402.94;5051256;28;24447;-76
2023/08/11 05:38:31;;;;;;;3.88;2.97;;;;;;;14.10;100.00;96399.00;5051473;28;24447;-75
2023/08/11 05:40:59;;;;;;;13.23;3.60;;;;;;;14.19;100.00;96398.38;5050840;28;24458;-76
2023/08/11 05:43:25;;;;;;;4.85;3.13;;;;;;;14.29;100.00;96405.47;5051252;28;24462;-75
2023/08/11 05:45:52;;;;;;;4.93;3.45;;;;;;;14.28;100.00;96403.81;5050519;28;24438;-76
2023/08/11 05:48:18;;;;;;;2.88;2.42;;;;;;;14.32;100.00;96394.00;5050447;28;24447;-75
2023/08/11 05:50:45;;;;;;;6.25;2.92;;;;;;;14.49;100.00;96395.47;5051589;28;24427;-77
2023/08/11 05:53:12;;;;;;;7.60;3.35;;;;;;;14.56;100.00;96396.75;5050381;28;24471;-77
2023/08/11 05:55:38;;;;;;;5.60;3.22;;;;;;;14.58;100.00;96404.47;5049403;28;24450;-76
2023/08/11 05:58:06;;;;;;;3.88;3.47;;;;;;;14.70;100.00;96399.22;5049088;28;24435;-75
2023/08/11 06:00:33;;;;;;;4.20;2.97;;;;;;;14.72;100.00;96399.13;5045207;28;24450;-78
2023/08/11 06:02:59;;;;;;;3.30;2.85;;;;;;;14.87;100.00;96405.03;5052412;28;24516;-75
2023/08/11 06:05:26;;;;;;;6.82;2.83;;;;;;;14.97;100.00;96400.84;5052108;28;24443;-77
2023/08/11 06:07:52;;;;;;;4.20;2.67;;;;;;;14.92;100.00;96403.78;5050885;28;24564;-75
2023/08/11 06:10:19;;;;;;;5.68;2.92;;;;;;;14.94;100.00;96404.53;5051357;28;24504;-75
2023/08/11 06:12:45;;;;;;;4.53;3.53;;;;;;;15.09;100.00;96400.00;5051943;28;24438;-75
2023/08/11 06:15:13;;;;;;;3.13;2.78;;;;;;;15.30;100.00;96396.81;5051342;28;24439;-74
2023/08/11 06:17:40;;;;;;;5.65;3.30;;;;;;;15.48;100.00;96395.47;5050922;28;24537;-75
2023/08/11 06:20:10;;;;;;;6.95;2.97;;;;;;;15.51;100.00;96397.03;5050694;28;24454;-75
2023/08/11 06:22:37;;;;;;;5.05;3.15;;;;;;;15.72;100.00;96400.72;5050811;28;24440;-75
2023/08/11 06:25:03;;;;;;;7.55;3.42;;;;;;;15.88;100.00;96401.25;5050538;28;24442;-75
2023/08/11 06:27:30;;;;;;;7.67;3.27;;;;;;;15.97;100.00;96405.78;5051204;28;24907;-76
2023/08/11 06:29:56;;;;;;;3.50;2.95;;;;;;;16.21;100.00;96405.75;5050815;28;24439;-75
2023/08/11 06:32:24;;;;;;;7.57;3.08;;;;;;;16.55;100.00;96397.97;5050711;28;24431;-75
2023/08/11 06:34:51;;;;;;;6.60;3.35;;;;;;;16.56;100.00;96404.03;5050451;28;24443;-76
2023/08/11 06:37:17;;;;;;;4.40;3.45;;;;;;;16.53;100.00;96401.63;5050502;28;24529;-75
2023/08/11 06:39:44;;;;;;;4.20;2.95;;;;;;;16.54;100.00;96406.75;5050734;28;24434;-74
2023/08/11 06:42:10;;;;;;;3.58;2.88;;;;;;;16.75;100.00;96403.47;5050333;28;24431;-74
2023/08/11 06:44:36;;;;;;;3.67;2.72;;;;;;;17.02;100.00;96388.25;5037435;28;24431;-74
2023/08/11 06:47:03;;;;;;;4.65;2.90;;;;;;;17.03;100.00;96403.00;5050303;28;24505;-74
2023/08/11 06:49:31;;;;;;;5.10;2.78;;;;;;;17.38;100.00;96401.97;5050611;28;24431;-74
2023/08/11 06:51:57;;;;;;;8.48;2.67;;;;;;;17.78;100.00;96398.78;5050206;28;24435;-74
2023/08/11 06:54:24;;;;;;;4.35;2.50;;;;;;;18.19;100.00;96397.16;5050246;28;24478;-76
2023/08/11 06:56:50;;;;;;;6.30;2.78;;;;;;;18.62;100.00;96389.97;5052082;28;24431;-76
2023/08/11 06:59:17;;;;;;;3.83;2.83;;;;;;;18.96;100.00;96397.59;5052041;28;24538;-76
2023/08/11 07:01:44;;;;;;;4.22;2.83;;;;;;;19.28;100.00;96394.81;5051336;28;24435;-77
2023/08/11 07:04:10;;;;;;;5.28;2.85;;;;;;;19.57;100.00;96400.09;5049419;28;24538;-77
2023/08/11 07:06:38;;;;;;;4.90;2.50;;;;;;;19.85;100.00;96399.47;5049352;28;24439;-71
2023/08/11 07:09:05;;;;;;;2.60;2.25;;;;;;;20.11;100.00;96405.81;5054087;28;24427;-77
2023/08/11 07:11:32;;;;;;;2.72;2.40;;;;;;;20.40;100.00;96402.31;5056589;28;24439;-78
2023/08/11 07:13:58;;;;;;;5.68;2.78;;;;;;;20.48;100.00;96403.25;5052244;28;24431;-76
2023/08/11 07:16:24;;;;;;;4.07;2.57;;;;;;;20.77;100.00;96399.75;5049868;28;24475;-71
2023/08/11 07:18:51;;;;;;;2.90;2.45;;;;;;;20.67;100.00;96398.97;5049936;28;24435;-74
2023/08/11 07:21:17;;;;;;;3.35;2.65;;;;;;;20.71;100.00;96402.97;5049980;28;24550;-75
2023/08/11 07:23:45;;;;;;;4.22;2.88;;;;;;;20.62;100.00;96402.03;5049545;28;24439;-74
2023/08/11 07:26:11;;;;;;;5.65;3.03;;;;;;;20.55;100.00;96411.47;5049848;28;24415;-74
2023/08/11 07:28:38;;;;;;;4.35;2.83;;;;;;;20.67;100.00;96401.59;5050080;28;24447;-74
2023/08/11 07:31:05;;;;;;;3.17;2.45;;;;;;;20.75;100.00;96402.53;5049736;28;24428;-74
2023/08/11 07:33:31;;;;;;;3.80;2.70;;;;;;;20.79;100.00;96403.06;5050662;28;24478;-74
2023/08/11 07:35:57;;;;;;;4.43;2.80;;;;;;;20.95;100.00;96397.19;5053882;28;24446;-74
2023/08/11 07:38:24;;;;;;;4.55;2.90;;;;;;;21.08;100.00;96410.03;5053806;28;24431;-74
2023/08/11 07:40:52;;;;;;;4.28;2.90;;;;;;;21.03;100.00;96413.09;5053783;28;24439;-74
2023/08/11 07:43:18;;;;;;;3.58;2.97;;;;;;;21.05;100.00;96410.31;5052270;28;24521;-74
2023/08/11 07:45:45;;;;;;;3.45;2.95;;;;;;;21.15;100.00;96411.94;5052514;28;25008;-74
2023/08/11 07:48:11;;;;;;;3.80;2.67;;;;;;;21.47;100.00;96411.53;5052938;28;24470;-75
2023/08/11 07:50:38;;;;;;;3.88;2.88;;;;;;;21.58;100.00;96421.03;5053395;28;24438;-75
2023/08/11 07:53:05;;;;;;;4.83;2.87;;;;;;;21.54;100.00;96421.44;5053150;28;24810;-75
2023/08/11 07:55:31;;;;;;;3.83;2.90;;;;;;;21.71;100.00;96424.13;5053382;28;24457;-75
2023/08/11 07:57:59;;;;;;;3.75;2.85;;;;;;;22.13;100.00;96423.50;5053092;28;24436;-75
2023/08/11 08:00:25;;;;;;;3.08;2.70;;;;;;;22.58;100.00;96424.38;5053591;28;24423;-75
2023/08/11 08:02:53;;;;;;;4.38;2.63;;;;;;;22.91;100.00;96423.63;5054185;28;24424;-76
2023/08/11 08:05:19;;;;;;;4.60;2.60;;;;;;;23.24;100.00;96421.13;5054183;28;24451;-76
2023/08/11 08:07:46;;;;;;;3.22;2.88;;;;;;;23.46;100.00;96424.19;5054029;28;24462;-75
2023/08/11 08:10:14;;;;;;;3.38;2.78;;;;;;;23.02;100.00;96426.97;5054265;28;24419;-76
2023/08/11 08:12:42;;;;;;;5.63;3.40;;;;;;;23.10;100.00;96440.22;5054089;28;24449;-76
2023/08/11 08:15:11;;;;;;;6.57;2.97;;;;;;;23.05;100.00;96430.13;5054383;28;24981;-74
2023/08/11 08:17:38;;;;;;;4.78;3.00;;;;;;;22.89;100.00;96444.06;5050439;28;26075;-74
2023/08/11 08:20:08;;;;;;;3.95;2.75;;;;;;;23.03;100.00;96437.41;5054195;28;24415;-74
2023/08/11 08:22:34;;;;;;;4.20;2.60;;;;;;;23.46;100.00;96434.75;5053397;28;24487;-72
2023/08/11 08:25:01;;;;;;;3.60;2.72;;;;;;;23.85;100.00;96440.38;5053478;28;24447;-73
2023/08/11 08:27:27;;;;;;;5.70;2.70;;;;;;;23.96;96.98;96440.06;5051412;28;24466;-72
2023/08/11 08:29:54;;;;;;;3.88;2.70;;;;;;;24.40;100.00;96439.78;5050515;28;24439;-73
2023/08/11 08:32:22;;;;;;;4.38;2.50;;;;;;;24.56;97.00;96437.13;5041781;28;24438;-73
2023/08/11 08:34:49;;;;;;;4.32;2.80;;;;;;;25.12;81.93;96444.34;5052728;28;24485;-74
2023/08/11 08:37:16;;;;;;;5.77;2.63;;;;;;;25.36;83.84;96430.97;5052872;28;24411;-74
2023/08/11 08:39:43;;;;;;;4.22;2.47;;;;;;;25.68;85.90;96437.13;5052698;28;24990;-77
2023/08/11 08:42:11;;;;;;;2.88;2.20;;;;;;;25.63;75.98;96435.00;5052814;28;24530;-79
2023/08/11 08:44:39;;;;;;;4.83;2.70;;;;;;;25.71;73.89;96431.50;5051707;28;24436;-78
2023/08/11 08:47:07;;;;;;;3.88;2.47;;;;;;;25.89;78.52;96425.94;5052160;28;24451;-78
2023/08/11 08:49:36;;;;;;;4.63;2.60;;;;;;;25.89;72.72;96433.91;5052472;28;24970;-79
2023/08/11 08:52:03;;;;;;;3.08;2.50;;;;;;;26.20;74.01;96439.16;5052984;28;24497;-78
2023/08/11 08:54:29;;;;;;;9.27;2.63;;;;;;;26.29;74.35;96430.09;5052693;28;24422;-76
2023/08/11 08:56:57;;;;;;;3.13;2.30;;;;;;;25.86;73.57;96426.28;5051330;28;24858;-76
2023/08/11 08:59:24;;;;;;;3.35;2.50;;;;;;;25.85;73.61;96427.31;5052541;28;24418;-77
2023/08/11 09:01:51;;;;;;;4.03;2.50;;;;;;;25.59;71.40;96428.41;5042570;28;24463;-76
2023/08/11 09:04:20;;;;;;;4.90;2.22;;;;;;;25.87;71.64;96420.78;5052449;28;24455;-77
2023/08/11 09:06:48;;;;;;;4.37;2.30;;;;;;;26.38;74.21;96425.56;5052400;28;25067;-77
2023/08/11 09:09:15;;;;;;;2.33;2.05;;;;;;;25.99;70.93;96431.81;5052053;28;24459;-78
2023/08/11 09:11:42;;;;;;;8.77;2.65;;;;;;;26.50;71.42;96426.81;5052618;28;24445;-77
2023/08/11 09:14:10;;;;;;;3.30;2.67;;;;;;;25.85;69.76;96428.13;5052387;28;24810;-76
2023/08/11 09:16:38;;;;;;;3.28;2.47;;;;;;;25.44;70.05;96430.97;5052273;28;24783;-76
2023/08/11 09:19:05;;;;;;;7.57;2.90;;;;;;;25.59;74.25;96421.28;5052247;28;24418;-77
2023/08/11 09:21:32;;;;;;;3.47;2.77;;;;;;;26.54;76.91;96422.78;5051907;28;24434;-76
2023/08/11 09:24:00;;;;;;;3.47;2.30;;;;;;;26.74;70.82;96421.28;5052149;28;24778;-76
2023/08/11 09:26:27;;;;;;;4.05;2.88;;;;;;;26.94;77.82;96420.75;5051920;28;24439;-76
2023/08/11 09:28:54;;;;;;;3.92;2.42;;;;;;;27.21;74.46;96419.31;5052056;28;24454;-77
2023/08/11 09:31:21;;;;;;;3.42;2.60;;;;;;;27.23;67.52;96418.13;5052347;28;24435;-78
2023/08/11 09:33:48;;;;;;;3.87;2.60;;;;;;;27.37;74.22;96418.31;5052204;28;24993;-78
2023/08/11 09:36:14;;;;;;;3.92;2.70;;;;;;;27.10;68.54;96419.75;5052438;28;24972;-78
2023/08/11 09:38:42;;;;;;;6.20;2.58;;;;;;;27.39;70.03;96424.25;5052398;28;24443;-77
2023/08/11 09:41:11;;;;;;;3.25;2.47;;;;;;;27.48;66.69;96426.63;5052348;28;24462;-78
2023/08/11 09:43:37;;;;;;;4.97;2.58;;;;;;;27.34;65.90;96421.34;5052426;28;24439;-77
2023/08/11 09:46:04;;;;;;;3.33;2.60;;;;;;;26.89;65.00;96421.31;5052198;28;24444;-77
2023/08/11 09:48:31;;;;;;;2.50;2.03;;;;;;;27.30;71.16;96422.72;5058198;22;24888;-73
2023/08/11 09:50:58;;;;;;;4.00;2.00;;;;;;;27.65;63.90;96415.75;5011377;28;24471;-73
2023/08/11 09:53:26;;;;;;;3.50;2.33;;;;;;;27.69;63.48;96420.50;5020905;28;25233;-73
2023/08/11 09:55:55;;;;;;;3.57;2.50;;;;;;;27.53;62.84;96423.41;5015404;28;24447;-73
2023/08/11 09:58:25;;;;;;;3.25;2.30;;;;;;;27.69;69.97;96423.19;5034319;28;24516;-73
2023/08/11 10:00:53;;;;;;;4.07;2.25;;;;;;;28.08;63.85;96426.50;5044137;28;25034;-74
2023/08/11 10:03:26;;;;;;;8.20;2.15;;;;;;;28.26;67.87;96426.88;5035146;28;24434;-73
2023/08/11 10:05:55;;;;;;;3.45;2.25;;;;;;;28.14;62.98;96434.53;5050136;28;24442;-73
2023/08/11 10:08:24;;;;;;;3.45;2.47;;;;;;;28.34;66.92;96439.25;5044687;28;24834;-73
2023/08/11 10:10:51;;;;;;;3.88;2.30;;;;;;;28.25;63.98;96427.06;5031098;28;24438;-75
2023/08/11 10:13:25;;;;;;;3.58;2.30;;;;;;;28.37;65.29;96426.41;5031574;28;24494;-74
2023/08/11 10:15:52;;;;;;;3.40;2.50;;;;;;;28.34;63.91;96428.59;5031605;28;24471;-74
2023/08/11 10:18:20;;;;;;;3.30;2.20;;;;;;;28.12;64.62;96431.25;5031014;28;24463;-73
2023/08/11 10:20:49;;;;;;;2.75;2.22;;;;;;;28.38;64.40;96427.22;5040683;28;24849;-74
2023/08/11 10:23:17;;;;;;;3.00;2.00;;;;;;;27.94;69.31;96425.53;5037383;28;24525;-74
2023/08/11 10:25:44;;;;;;;3.70;2.30;;;;;;;28.10;69.83;96433.25;5044790;28;24438;-75
2023/08/11 10:28:12;;;;;;;2.40;1.98;;;;;;;28.45;61.33;96431.59;5015044;28;24445;-74
2023/08/11 10:30:40;;;;;;;3.47;2.13;;;;;;;28.28;60.69;96429.34;5030382;28;24799;-73
2023/08/11 10:33:08;;;;;;;2.58;2.20;;;;;;;28.39;59.37;96423.53;5030705;28;24475;-74
2023/08/11 10:35:47;;;;;;;2.47;2.27;;;;;;;28.61;58.48;96425.16;5030351;28;24858;-74
2023/08/11 10:38:17;;;;;;;3.50;2.00;;;;;;;28.50;60.47;96428.34;5030483;28;24459;-73
2023/08/11 10:40:45;;;;;;;3.42;2.30;;;;;;;28.90;61.71;96426.81;5032664;28;24450;-74
2023/08/11 10:43:18;;;;;;;2.38;1.90;;;;;;;29.05;57.90;96424.06;5042621;28;24542;-74
2023/08/11 10:45:46;;;;;;;3.75;2.42;;;;;;;28.86;60.73;96424.72;5047417;28;24861;-73
2023/08/11 10:48:12;;;;;;;3.67;2.10;;;;;;;28.21;54.03;96431.94;5030180;28;24440;-73
2023/08/11 10:50:39;;;;;;;2.22;2.03;;;;;;;27.99;56.24;96423.94;5030479;28;24440;-73
2023/08/11 10:53:07;;;;;;;2.75;1.92;;;;;;;27.60;56.35;96432.28;5030358;28;24471;-73
2023/08/11 10:55:34;;;;;;;3.45;2.05;;;;;;;27.45;57.80;96427.00;5042210;28;24438;-74
2023/08/11 10:58:12;;;;;;;2.43;2.10;;;;;;;27.41;57.91;96432.88;5034538;28;24462;-72
2023/08/11 11:00:38;;;;;;;2.10;1.83;;;;;;;27.58;62.78;96428.97;5043639;28;24493;-72
2023/08/11 11:03:07;;;;;;;3.75;2.28;;;;;;;28.35;60.84;96424.91;5030152;28;24799;-73
2023/08/11 11:05:33;;;;;;;3.65;2.17;;;;;;;28.59;59.75;96415.69;5043700;28;24474;-73
2023/08/11 11:08:00;;;;;;;2.88;2.28;;;;;;;28.63;60.47;96420.47;5048297;28;24438;-73
2023/08/11 11:10:28;;;;;;;2.20;2.00;;;;;;;28.46;55.90;96419.91;5049512;28;24518;-73
2023/08/11 11:12:54;;;;;;;4.45;2.20;;;;;;;28.49;56.46;96420.56;5033057;28;25018;-73
2023/08/11 11:15:21;;;;;;;3.42;2.30;;;;;;;27.86;55.70;96415.00;5030244;28;24796;-73
2023/08/11 11:17:48;;;;;;;4.20;2.20;;;;;;;27.69;57.43;96401.06;5033558;28;24443;-72
2023/08/11 11:20:15;;;;;;;2.45;1.85;;;;;;;27.63;56.93;96402.66;5029690;28;24439;-72
2023/08/11 11:22:47;;;;;;;5.68;2.47;;;;;;;27.60;56.99;96410.19;5029823;28;24444;-72
2023/08/11 11:25:14;;;;;;;3.65;2.13;;;;;;;27.61;60.26;96396.69;5016667;28;24447;-72
2023/08/11 11:27:41;;;;;;;4.38;2.42;;;;;;;27.48;57.02;96385.91;5037967;28;24435;-72